Time;durP1;ratioP1;P1;durP2;ratioP2;P2;SDS_P1;SDS_P2;PMS_P1;PMS_P2;Temp;Humidity;BMP_temperature;BMP_pressure;BME280_temperature;BME280_humidity;BME280_pressure;Samples;Min_cycle;Max_cycle;Signal;HPM_P1;HPM_P2
2023/06/10 00:01:33;;;;;;;8.02;3.80;;;;;;;;;;5054186;28;20014;-81
2023/06/10 00:03:59;;;;;;;8.75;3.63;;;;;;;;;;5052480;28;20527;-81
2023/06/10 00:06:25;;;;;;;9.10;4.57;;;;;;;;;;5053271;28;20044;-80
2023/06/10 00:08:51;;;;;;;;;;;;;;;;;;5057311;28;20059;-81
2023/06/10 00:11:17;;;;;;;7.93;3.85;;;;;;;;;;5072921;28;20322;-80
2023/06/10 00:13:43;;;;;;;7.72;3.60;;;;;;;;;;5053609;28;20109;-80
2023/06/10 00:16:09;;;;;;;;;;;;;;;;;;5054288;28;20047;-80
2023/06/10 00:18:38;;;;;;;10.20;3.95;;;;;;;;;;5036247;28;19928;-81
2023/06/10 00:21:04;;;;;;;9.50;3.78;;;;;;;;;;5036096;28;20090;-81
2023/06/10 00:23:31;;;;;;;11.13;4.82;;;;;;;;;;5037190;28;20067;-81
2023/06/10 00:26:00;;;;;;;9.50;3.70;;;;;;;;;;5036686;28;20050;-80
2023/06/10 00:28:26;;;;;;;6.72;3.55;;;;;;;;;;5037087;28;20094;-78
2023/06/10 00:30:52;;;;;;;;;;;;;;;;;;5053738;28;20474;-80
2023/06/10 00:33:18;;;;;;;9.88;4.15;;;;;;;;;;5058735;28;19928;-80
2023/06/10 00:35:44;;;;;;;;;;;;;;;;;;5053565;28;20105;-80
2023/06/10 00:38:10;;;;;;;11.48;4.18;;;;;;;;;;5043036;28;19921;-79
2023/06/10 00:40:36;;;;;;;;;;;;;;;;;;5037346;28;20052;-79
2023/06/10 00:43:02;;;;;;;8.80;4.20;;;;;;;;;;5052951;28;19943;-81
2023/06/10 00:45:28;;;;;;;8.27;4.28;;;;;;;;;;5042692;28;20051;-81
2023/06/10 00:47:54;;;;;;;;;;;;;;;;;;5062763;28;20110;-80
2023/06/10 00:50:21;;;;;;;9.35;4.45;;;;;;;;;;5081406;28;19921;-80
2023/06/10 00:52:48;;;;;;;;;;;;;;;;;;5086697;28;20044;-80
2023/06/10 00:55:14;;;;;;;8.70;3.92;;;;;;;;;;5089696;28;19924;-79
2023/06/10 00:57:44;;;;;;;13.05;4.30;;;;;;;;;;5091016;28;20052;-80
2023/06/10 01:00:10;;;;;;;11.20;5.10;;;;;;;;;;5073268;28;20054;-80
2023/06/10 01:02:36;;;;;;;10.00;4.43;;;;;;;;;;5069596;28;20097;-80
2023/06/10 01:05:03;;;;;;;;;;;;;;;;;;5052792;28;20059;-80
2023/06/10 01:07:35;;;;;;;7.53;3.85;;;;;;;;;;5067093;28;19976;-80
2023/06/10 01:10:13;;;;;;;11.77;4.07;;;;;;;;;;5072614;28;20527;-80
2023/06/10 01:13:02;;;;;;;13.35;4.22;;;;;;;;;;5053939;28;20052;-80
2023/06/10 01:15:32;;;;;;;11.02;4.60;;;;;;;;;;5064980;28;20051;-81
2023/06/10 01:18:02;;;;;;;11.00;4.20;;;;;;;;;;5071913;28;20044;-80
2023/06/10 01:20:32;;;;;;;11.85;4.45;;;;;;;;;;5062142;28;20082;-80
2023/06/10 01:22:59;;;;;;;9.55;4.20;;;;;;;;;;5052617;28;20127;-80
2023/06/10 01:25:32;;;;;;;8.15;4.20;;;;;;;;;;5053118;28;20135;-79
2023/06/10 01:27:58;;;;;;;12.23;4.95;;;;;;;;;;5065282;28;20052;-80
2023/06/10 01:30:25;;;;;;;;;;;;;;;;;;5073232;28;20134;-80
2023/06/10 01:32:52;;;;;;;12.75;5.10;;;;;;;;;;5054926;28;19920;-79
2023/06/10 01:35:18;;;;;;;12.07;4.80;;;;;;;;;;5053349;28;20044;-80
2023/06/10 01:37:44;;;;;;;;;;;;;;;;;;5081134;28;20048;-80
2023/06/10 01:40:11;;;;;;;15.13;5.35;;;;;;;;;;5072267;28;20510;-80
2023/06/10 01:42:37;;;;;;;11.43;5.43;;;;;;;;;;5072804;28;20044;-80
2023/06/10 01:45:03;;;;;;;11.52;4.88;;;;;;;;;;5057071;28;20049;-80
2023/06/10 01:47:29;;;;;;;12.52;5.38;;;;;;;;;;5052131;28;20481;-80
2023/06/10 01:49:56;;;;;;;;;;;;;;;;;;5059672;28;20131;-80
2023/06/10 01:52:22;;;;;;;11.83;5.07;;;;;;;;;;5070487;28;19931;-80
2023/06/10 01:54:48;;;;;;;10.63;5.00;;;;;;;;;;5056968;28;20122;-80
2023/06/10 01:57:14;;;;;;;;;;;;;;;;;;5056624;28;20094;-80
2023/06/10 01:59:42;;;;;;;14.93;6.10;;;;;;;;;;5056630;28;19924;-80
2023/06/10 02:02:08;;;;;;;9.90;4.57;;;;;;;;;;5058960;28;20135;-80
2023/06/10 02:04:34;;;;;;;;;;;;;;;;;;5039625;28;20083;-80
2023/06/10 02:07:03;;;;;;;13.18;5.53;;;;;;;;;;5038818;28;19924;-80
2023/06/10 02:09:29;;;;;;;10.50;5.20;;;;;;;;;;5056881;28;20053;-80
2023/06/10 02:11:55;;;;;;;12.73;5.45;;;;;;;;;;5055349;28;20460;-80
2023/06/10 02:14:21;;;;;;;;;;;;;;;;;;5056776;28;20096;-80
2023/06/10 02:16:47;;;;;;;14.73;5.55;;;;;;;;;;5065335;28;20322;-80
2023/06/10 02:19:13;;;;;;;;;;;;;;;;;;5055392;28;20226;-80
2023/06/10 02:21:39;;;;;;;10.38;5.38;;;;;;;;;;5072680;28;20389;-80
2023/06/10 02:24:05;;;;;;;;;;;;;;;;;;5056266;28;20052;-80
2023/06/10 02:26:31;;;;;;;15.23;5.55;;;;;;;;;;5056093;28;19924;-80
2023/06/10 02:28:58;;;;;;;10.68;5.45;;;;;;;;;;5073074;28;20044;-79
2023/06/10 02:31:25;;;;;;;;;;;;;;;;;;5056391;28;20375;-80
2023/06/10 02:33:51;;;;;;;12.45;5.20;;;;;;;;;;5069897;28;19972;-80
2023/06/10 02:36:17;;;;;;;14.15;5.25;;;;;;;;;;5074946;28;20048;-80
2023/06/10 02:38:43;;;;;;;;;;;;;;;;;;5074418;28;20047;-80
2023/06/10 02:41:09;;;;;;;11.43;5.35;;;;;;;;;;5075309;28;19920;-80
2023/06/10 02:43:35;;;;;;;;;;;;;;;;;;5065228;28;20120;-80
2023/06/10 02:46:01;;;;;;;13.07;5.22;;;;;;;;;;5054785;28;20019;-80
2023/06/10 02:48:27;;;;;;;;;;;;;;;;;;5055170;28;20484;-80
2023/06/10 02:50:53;;;;;;;11.50;5.18;;;;;;;;;;5039135;28;19920;-80
2023/06/10 02:53:19;;;;;;;;;;;;;;;;;;5075781;28;20054;-80
2023/06/10 02:55:45;;;;;;;14.05;5.60;;;;;;;;;;5056830;28;19928;-80
2023/06/10 02:58:11;;;;;;;;;;;;;;;;;;5071243;28;20044;-80
2023/06/10 03:00:39;;;;;;;13.07;5.28;;;;;;;;;;5074314;28;19924;-79
2023/06/10 03:03:05;;;;;;;10.32;4.85;;;;;;;;;;5057290;28;20623;-79
2023/06/10 03:05:31;;;;;;;9.93;5.43;;;;;;;;;;5074954;28;20545;-80
2023/06/10 03:07:57;;;;;;;11.43;5.30;;;;;;;;;;5055119;28;20094;-79
2023/06/10 03:10:23;;;;;;;12.43;5.35;;;;;;;;;;5072204;28;20051;-79
2023/06/10 03:12:49;;;;;;;;;;;;;;;;;;5075019;28;20109;-80
2023/06/10 03:15:15;;;;;;;11.10;5.25;;;;;;;;;;5074740;28;20277;-80
2023/06/10 03:17:41;;;;;;;;;;;;;;;;;;5058293;28;20077;-80
2023/06/10 03:20:10;;;;;;;11.02;4.65;;;;;;;;;;5074199;28;19924;-79
2023/06/10 03:22:37;;;;;;;9.18;4.97;;;;;;;;;;5067694;28;20048;-80
2023/06/10 03:25:04;;;;;;;9.70;4.82;;;;;;;;;;5037981;28;20109;-79
2023/06/10 03:27:30;;;;;;;11.30;4.80;;;;;;;;;;5054894;28;20048;-80
2023/06/10 03:29:56;;;;;;;11.18;4.55;;;;;;;;;;5054631;28;20102;-80
2023/06/10 03:32:22;;;;;;;;;;;;;;;;;;5054640;28;20060;-79
2023/06/10 03:34:48;;;;;;;13.10;5.20;;;;;;;;;;5054598;28;20023;-80
2023/06/10 03:37:14;;;;;;;;;;;;;;;;;;5037952;28;20052;-80
2023/06/10 03:39:40;;;;;;;13.07;5.15;;;;;;;;;;5054937;28;19927;-80
2023/06/10 03:42:06;;;;;;;;;;;;;;;;;;5037957;28;20413;-80
2023/06/10 03:44:32;;;;;;;9.45;4.55;;;;;;;;;;5054722;28;19921;-80
2023/06/10 03:46:59;;;;;;;11.52;4.43;;;;;;;;;;5054667;28;20196;-80
2023/06/10 03:49:28;;;;;;;11.77;5.15;;;;;;;;;;5053135;28;20048;-79
2023/06/10 03:51:54;;;;;;;13.13;5.13;;;;;;;;;;5039363;28;20045;-80
2023/06/10 03:54:20;;;;;;;;;;;;;;;;;;5054550;28;20529;-80
2023/06/10 03:56:48;;;;;;;12.93;5.40;;;;;;;;;;5054232;28;19921;-79
2023/06/10 03:59:14;;;;;;;12.40;5.03;;;;;;;;;;5052100;28;20056;-79
2023/06/10 04:01:41;;;;;;;11.45;5.20;;;;;;;;;;5053986;28;20051;-80
2023/06/10 04:04:07;;;;;;;9.95;4.57;;;;;;;;;;5052956;28;20044;-79
2023/06/10 04:06:33;;;;;;;;;;;;;;;;;;5057517;28;20085;-80
2023/06/10 04:08:59;;;;;;;13.88;4.78;;;;;;;;;;5073910;28;19920;-80
2023/06/10 04:11:25;;;;;;;15.02;5.43;;;;;;;;;;5071336;28;20064;-79
2023/06/10 04:13:51;;;;;;;;;;;;;;;;;;5054973;28;20131;-80
2023/06/10 04:16:17;;;;;;;12.10;4.95;;;;;;;;;;5081569;28;19920;-80
2023/06/10 04:18:43;;;;;;;;;;;;;;;;;;5090290;28;20044;-80
2023/06/10 04:21:09;;;;;;;11.07;4.70;;;;;;;;;;5072941;28;19920;-79
2023/06/10 04:23:37;;;;;;;;;;;;;;;;;;5074494;28;20454;-79
2023/06/10 04:26:05;;;;;;;11.38;4.93;;;;;;;;;;5073700;28;20379;-80
2023/06/10 04:28:31;;;;;;;9.80;4.95;;;;;;;;;;5073718;28;20060;-80
2023/06/10 04:30:57;;;;;;;11.65;5.15;;;;;;;;;;5073534;28;20139;-80
2023/06/10 04:33:24;;;;;;;14.43;5.00;;;;;;;;;;5070081;28;20600;-79
2023/06/10 04:35:50;;;;;;;8.95;4.40;;;;;;;;;;5070436;28;20680;-80
2023/06/10 04:38:16;;;;;;;15.82;5.45;;;;;;;;;;5063775;28;20131;-79
2023/06/10 04:40:42;;;;;;;12.13;4.68;;;;;;;;;;5036955;28;20045;-79
2023/06/10 04:43:09;;;;;;;15.48;5.65;;;;;;;;;;5069548;28;20056;-79
2023/06/10 04:45:34;;;;;;;;;;;;;;;;;;5070450;28;20086;-79
2023/06/10 04:48:00;;;;;;;10.23;4.85;;;;;;;;;;5053031;28;19982;-79
2023/06/10 04:50:27;;;;;;;;;;;;;;;;;;5069554;28;20627;-79
2023/06/10 04:52:53;;;;;;;15.80;5.53;;;;;;;;;;5036875;28;19920;-80
2023/06/10 04:55:19;;;;;;;11.13;5.00;;;;;;;;;;5036240;28;20131;-80
2023/06/10 04:57:45;;;;;;;;;;;;;;;;;;5066805;28;20044;-80
2023/06/10 05:00:11;;;;;;;9.93;4.43;;;;;;;;;;5036026;28;20062;-79
2023/06/10 05:02:37;;;;;;;12.77;5.10;;;;;;;;;;5068973;28;20051;-79
2023/06/10 05:05:03;;;;;;;11.90;4.70;;;;;;;;;;5069434;28;20056;-79
2023/06/10 05:07:29;;;;;;;12.15;5.20;;;;;;;;;;5069166;28;20443;-80
2023/06/10 05:09:55;;;;;;;;;;;;;;;;;;5073559;28;20063;-80
2023/06/10 05:12:22;;;;;;;12.98;4.90;;;;;;;;;;5055313;28;19920;-79
2023/06/10 05:14:48;;;;;;;12.00;5.28;;;;;;;;;;5073282;28;20409;-80
2023/06/10 05:17:14;;;;;;;;;;;;;;;;;;5068517;28;20055;-79
2023/06/10 05:19:41;;;;;;;11.82;5.63;;;;;;;;;;5055344;28;19931;-80
2023/06/10 05:22:07;;;;;;;12.00;5.22;;;;;;;;;;5072202;28;20408;-80
2023/06/10 05:24:33;;;;;;;;;;;;;;;;;;5072375;28;20048;-80
2023/06/10 05:26:59;;;;;;;11.60;5.13;;;;;;;;;;5072451;28;20323;-80
2023/06/10 05:29:25;;;;;;;;;;;;;;;;;;5072875;28;20044;-80
2023/06/10 05:31:52;;;;;;;13.93;5.55;;;;;;;;;;5073093;28;20313;-79
2023/06/10 05:34:18;;;;;;;9.30;4.60;;;;;;;;;;5071849;28;20048;-80
2023/06/10 05:36:44;;;;;;;14.60;5.43;;;;;;;;;;5066680;28;20040;-80
2023/06/10 05:39:10;;;;;;;;;;;;;;;;;;5053341;28;20441;-80
2023/06/10 05:41:36;;;;;;;10.45;5.05;;;;;;;;;;5052288;28;20485;-80
2023/06/10 05:44:02;;;;;;;;;;;;;;;;;;5053342;28;20490;-80
2023/06/10 05:46:28;;;;;;;15.30;5.38;;;;;;;;;;5062447;28;19931;-80
2023/06/10 05:48:54;;;;;;;14.02;5.03;;;;;;;;;;5071950;28;20560;-80
2023/06/10 05:51:20;;;;;;;;;;;;;;;;;;5071975;28;20044;-80
2023/06/10 05:53:46;;;;;;;14.60;5.20;;;;;;;;;;5073026;28;20394;-79
2023/06/10 05:56:12;;;;;;;;;;;;;;;;;;5072896;28;20052;-79
2023/06/10 05:58:39;;;;;;;10.80;4.70;;;;;;;;;;5070479;28;19931;-80
2023/06/10 06:01:05;;;;;;;9.85;4.72;;;;;;;;;;5072473;28;20104;-79
2023/06/10 06:03:31;;;;;;;;;;;;;;;;;;5054948;28;20060;-80
2023/06/10 06:05:57;;;;;;;7.80;4.10;;;;;;;;;;5072249;28;19931;-79
2023/06/10 06:08:23;;;;;;;9.77;4.40;;;;;;;;;;5072294;28;20054;-76
2023/06/10 06:10:49;;;;;;;;;;;;;;;;;;5072702;28;20051;-75
2023/06/10 06:13:15;;;;;;;13.90;4.95;;;;;;;;;;5071833;28;19920;-76
2023/06/10 06:15:41;;;;;;;;;;;;;;;;;;5090782;28;20090;-78
2023/06/10 06:18:07;;;;;;;14.13;4.85;;;;;;;;;;5071902;28;20254;-74
2023/06/10 06:20:33;;;;;;;;;;;;;;;;;;5087211;28;20044;-77
2023/06/10 06:22:59;;;;;;;12.88;5.03;;;;;;;;;;5072324;28;20328;-78
2023/06/10 06:25:25;;;;;;;10.98;4.38;;;;;;;;;;5072129;28;20048;-78
2023/06/10 06:27:51;;;;;;;;;;;;;;;;;;5072817;28;20048;-78
2023/06/10 06:30:17;;;;;;;8.73;4.50;;;;;;;;;;5089897;28;19920;-78
2023/06/10 06:32:43;;;;;;;;;;;;;;;;;;5071799;28;20048;-78
2023/06/10 06:35:09;;;;;;;9.55;4.45;;;;;;;;;;5056613;28;20376;-78
2023/06/10 06:37:36;;;;;;;11.43;4.60;;;;;;;;;;5058895;28;20054;-78
2023/06/10 06:40:03;;;;;;;11.13;5.25;;;;;;;;;;5076063;28;20044;-78
2023/06/10 06:42:29;;;;;;;10.07;4.85;;;;;;;;;;5070278;28;20052;-78
2023/06/10 06:44:55;;;;;;;;;;;;;;;;;;5039745;28;20056;-78
2023/06/10 06:47:21;;;;;;;12.32;4.70;;;;;;;;;;5054872;28;19924;-78
2023/06/10 06:49:47;;;;;;;;;;;;;;;;;;5055535;28;20398;-78
2023/06/10 06:52:14;;;;;;;10.85;4.85;;;;;;;;;;5038723;28;19931;-78
2023/06/10 06:54:40;;;;;;;13.65;5.50;;;;;;;;;;5066956;28;20127;-78
2023/06/10 06:57:06;;;;;;;;;;;;;;;;;;5076039;28;20040;-78
2023/06/10 06:59:33;;;;;;;10.23;4.65;;;;;;;;;;5058363;28;19970;-78
2023/06/10 07:01:59;;;;;;;9.23;4.25;;;;;;;;;;5059971;28;20044;-78
2023/06/10 07:04:25;;;;;;;;;;;;;;;;;;5090038;28;20391;-78
2023/06/10 07:06:51;;;;;;;9.80;4.60;;;;;;;;;;5054878;28;19928;-78
2023/06/10 07:09:17;;;;;;;9.10;4.43;;;;;;;;;;5038830;28;20048;-78
2023/06/10 07:11:43;;;;;;;;;;;;;;;;;;5061670;28;20076;-78
2023/06/10 07:14:09;;;;;;;10.93;4.70;;;;;;;;;;5074847;28;19962;-78
2023/06/10 07:16:35;;;;;;;;;;;;;;;;;;5074580;28;20494;-75
2023/06/10 07:19:01;;;;;;;7.88;4.03;;;;;;;;;;5057743;28;20026;-74
2023/06/10 07:21:28;;;;;;;;;;;;;;;;;;5074670;28;20069;-77
2023/06/10 07:23:54;;;;;;;8.18;4.38;;;;;;;;;;5066597;28;19924;-73
2023/06/10 07:26:22;;;;;;;12.73;5.55;;;;;;;;;;5072616;28;20056;-73
2023/06/10 07:28:48;;;;;;;11.43;5.30;;;;;;;;;;5064495;28;20051;-79
2023/06/10 07:31:14;;;;;;;;;;;;;;;;;;5073158;28;20067;-72
2023/06/10 07:33:40;;;;;;;16.02;5.53;;;;;;;;;;5071358;28;19924;-74
2023/06/10 07:36:07;;;;;;;9.32;4.75;;;;;;;;;;5054361;28;20082;-74
2023/06/10 07:38:33;;;;;;;11.70;5.55;;;;;;;;;;5085706;28;20074;-74
2023/06/10 07:41:00;;;;;;;8.55;4.20;;;;;;;;;;5092682;28;20048;-78
2023/06/10 07:43:26;;;;;;;12.57;5.43;;;;;;;;;;5055411;28;20051;-78
2023/06/10 07:45:52;;;;;;;9.70;4.47;;;;;;;;;;5073285;28;20048;-77
2023/06/10 07:48:18;;;;;;;8.15;4.25;;;;;;;;;;5052425;28;20048;-78
2023/06/10 07:50:44;;;;;;;12.20;5.32;;;;;;;;;;5072132;28;20688;-78
2023/06/10 07:53:10;;;;;;;9.65;4.65;;;;;;;;;;5056999;28;20042;-78
2023/06/10 07:55:37;;;;;;;8.05;3.85;;;;;;;;;;5055811;28;20047;-78
2023/06/10 07:58:02;;;;;;;;;;;;;;;;;;5073750;28;20127;-78
2023/06/10 08:00:28;;;;;;;8.20;3.40;;;;;;;;;;5072705;28;20462;-78
2023/06/10 08:02:55;;;;;;;;;;;;;;;;;;5056402;28;20055;-77
2023/06/10 08:05:21;;;;;;;14.27;5.45;;;;;;;;;;5072941;28;19924;-78
2023/06/10 08:07:47;;;;;;;11.30;5.00;;;;;;;;;;5071798;28;20388;-77
2023/06/10 08:10:13;;;;;;;;;;;;;;;;;;5069897;28;20039;-79
2023/06/10 08:12:39;;;;;;;14.20;5.90;;;;;;;;;;5072816;28;20392;-76
2023/06/10 08:15:06;;;;;;;9.35;4.95;;;;;;;;;;5073906;28;20135;-76
2023/06/10 08:17:32;;;;;;;10.48;4.50;;;;;;;;;;5072564;28;20047;-77
2023/06/10 08:19:58;;;;;;;12.63;6.20;;;;;;;;;;5073647;28;20048;-72
2023/06/10 08:22:24;;;;;;;16.40;7.80;;;;;;;;;;5073923;28;20067;-71
2023/06/10 08:24:50;;;;;;;12.85;6.65;;;;;;;;;;5073498;28;20043;-84
2023/06/10 08:27:16;;;;;;;;;;;;;;;;;;5072510;28;20052;-78
2023/06/10 08:29:42;;;;;;;16.17;7.70;;;;;;;;;;5059688;28;19947;-78
2023/06/10 08:32:08;;;;;;;;;;;;;;;;;;5053851;28;20044;-78
2023/06/10 08:34:37;;;;;;;13.02;5.97;;;;;;;;;;5055635;28;19927;-77
2023/06/10 08:37:04;;;;;;;11.48;6.35;;;;;;;;;;5073119;28;20133;-77
2023/06/10 08:39:33;;;;;;;13.93;5.78;;;;;;;;;;5056335;28;20450;-78
2023/06/10 08:42:33;;;;;;;14.45;7.03;;;;;;;;;;5058534;28;20127;-77
2023/06/10 08:45:01;;;;;;;13.98;7.03;;;;;;;;;;5010865;28;20741;-77
2023/06/10 08:47:30;;;;;;;18.23;7.47;;;;;;;;;;5036523;28;20052;-78
2023/06/10 08:50:01;;;;;;;11.13;5.70;;;;;;;;;;5051661;28;20047;-77
2023/06/10 08:52:29;;;;;;;13.80;6.00;;;;;;;;;;5066503;28;20060;-77
2023/06/10 08:55:04;;;;;;;12.50;5.90;;;;;;;;;;5055670;28;20048;-77
2023/06/10 08:57:31;;;;;;;12.68;6.18;;;;;;;;;;5071528;28;20052;-78
2023/06/10 08:59:57;;;;;;;11.80;5.07;;;;;;;;;;5057144;28;20080;-77
2023/06/10 09:02:27;;;;;;;7.75;4.13;;;;;;;;;;5056515;28;20047;-71
2023/06/10 09:04:53;;;;;;;11.27;5.28;;;;;;;;;;5090231;28;20450;-73
2023/06/10 09:07:20;;;;;;;13.07;6.35;;;;;;;;;;5091083;28;20122;-73
2023/06/10 09:09:46;;;;;;;15.30;7.13;;;;;;;;;;5081131;28;20067;-72
2023/06/10 09:12:15;;;;;;;12.40;5.68;;;;;;;;;;5070313;28;20056;-76
2023/06/10 09:14:42;;;;;;;7.60;4.20;;;;;;;;;;5081484;28;20055;-76
2023/06/10 09:17:08;;;;;;;9.18;5.43;;;;;;;;;;5090744;28;20055;-76
2023/06/10 09:19:35;;;;;;;10.30;5.05;;;;;;;;;;5089851;28;20050;-76
2023/06/10 09:22:01;;;;;;;8.85;5.30;;;;;;;;;;5090131;28;20044;-79
2023/06/10 09:24:28;;;;;;;15.35;6.68;;;;;;;;;;5090936;28;20052;-79
2023/06/10 09:27:06;;;;;;;15.15;6.22;;;;;;;;;;5071759;28;20040;-72
2023/06/10 09:29:32;;;;;;;12.68;5.65;;;;;;;;;;5064208;28;20120;-76
2023/06/10 09:31:58;;;;;;;12.85;5.80;;;;;;;;;;5078445;28;20040;-68
2023/06/10 09:34:26;;;;;;;11.07;6.15;;;;;;;;;;5070016;28;20052;-71
2023/06/10 09:36:52;;;;;;;12.50;5.88;;;;;;;;;;5069586;28;20044;-74
2023/06/10 09:39:19;;;;;;;10.77;5.40;;;;;;;;;;5053032;28;20048;-73
2023/06/10 09:41:46;;;;;;;7.47;4.10;;;;;;;;;;5069969;28;20045;-75
2023/06/10 09:44:16;;;;;;;13.13;4.50;;;;;;;;;;5052845;28;20237;-76
2023/06/10 09:46:42;;;;;;;11.68;4.78;;;;;;;;;;5070060;28;20055;-78
2023/06/10 09:49:08;;;;;;;10.77;4.75;;;;;;;;;;5073292;28;20044;-77
2023/06/10 09:51:34;;;;;;;10.32;4.70;;;;;;;;;;5056692;28;20102;-75
2023/06/10 09:54:03;;;;;;;8.60;4.15;;;;;;;;;;5052486;28;20547;-75
2023/06/10 09:56:36;;;;;;;20.25;5.45;;;;;;;;;;5052804;28;20052;-73
2023/06/10 09:59:03;;;;;;;11.02;4.65;;;;;;;;;;5052156;28;20052;-80
2023/06/10 10:01:31;;;;;;;10.02;4.03;;;;;;;;;;5036432;28;20052;-82
2023/06/10 10:03:57;;;;;;;7.05;3.80;;;;;;;;;;5061876;28;20043;-82
2023/06/10 10:06:23;;;;;;;6.80;3.90;;;;;;;;;;5090667;28;20366;-83
2023/06/10 10:08:50;;;;;;;6.82;3.67;;;;;;;;;;5052752;28;20075;-69
2023/06/10 10:11:21;;;;;;;7.03;3.58;;;;;;;;;;5092019;28;20056;-85
2023/06/10 10:13:49;;;;;;;6.97;3.50;;;;;;;;;;5063900;28;20052;-87
2023/06/10 10:16:17;;;;;;;7.57;3.92;;;;;;;;;;5057221;28;20104;-87
2023/06/10 10:18:46;;;;;;;16.05;4.72;;;;;;;;;;5062650;28;20059;-86
2023/06/10 10:21:13;;;;;;;13.07;4.65;;;;;;;;;;5075890;28;20056;-76
2023/06/10 10:23:42;;;;;;;6.55;3.70;;;;;;;;;;5076217;28;20125;-79
2023/06/10 10:26:11;;;;;;;9.30;3.83;;;;;;;;;;5093680;28;20047;-75
2023/06/10 10:28:48;;;;;;;7.25;3.70;;;;;;;;;;5093927;28;20105;-77
2023/06/10 10:31:18;;;;;;;8.50;3.05;;;;;;;;;;5076238;28;20066;-83
2023/06/10 10:33:59;;;;;;;6.88;3.22;;;;;;;;;;5079343;28;20052;-79
2023/06/10 10:36:26;;;;;;;5.55;3.25;;;;;;;;;;5038590;28;20105;-73
2023/06/10 10:38:52;;;;;;;7.50;3.10;;;;;;;;;;5073234;28;20145;-75
2023/06/10 10:41:19;;;;;;;132.93;14.95;;;;;;;;;;5093340;28;20044;-79
2023/06/10 10:43:45;;;;;;;7.50;3.33;;;;;;;;;;5058526;28;20062;-77
2023/06/10 10:46:13;;;;;;;6.03;3.20;;;;;;;;;;5075756;28;20052;-77
2023/06/10 10:48:41;;;;;;;19.77;4.45;;;;;;;;;;5074872;28;20131;-77
2023/06/10 10:51:07;;;;;;;7.05;3.13;;;;;;;;;;5074281;28;20378;-77
2023/06/10 10:53:33;;;;;;;6.68;2.80;;;;;;;;;;5056706;28;20102;-76
2023/06/10 10:56:13;;;;;;;74.53;8.85;;;;;;;;;;5072775;28;20084;-78
2023/06/10 10:58:39;;;;;;;7.13;3.13;;;;;;;;;;5061826;28;20123;-83
2023/06/10 11:01:12;;;;;;;6.45;3.03;;;;;;;;;;5075124;28;20128;-80
2023/06/10 11:03:45;;;;;;;5.43;2.75;;;;;;;;;;5058343;28;20044;-85
2023/06/10 11:06:18;;;;;;;5.68;2.72;;;;;;;;;;5057217;28;20047;-76
2023/06/10 11:08:44;;;;;;;4.10;2.50;;;;;;;;;;5075987;28;20117;-82
2023/06/10 11:11:20;;;;;;;8.73;2.90;;;;;;;;;;5054893;28;20060;-77
2023/06/10 11:14:00;;;;;;;7.72;2.75;;;;;;;;;;5050710;28;20590;-83
2023/06/10 11:16:27;;;;;;;5.75;2.55;;;;;;;;;;5052042;28;20052;-82
2023/06/10 11:18:54;;;;;;;5.38;2.60;;;;;;;;;;5050945;28;20045;-82
2023/06/10 11:21:20;;;;;;;4.18;2.70;;;;;;;;;;5034393;28;20052;-83
2023/06/10 11:23:47;;;;;;;8.13;2.65;;;;;;;;;;5035652;28;20057;-84
2023/06/10 11:26:20;;;;;;;8.48;2.70;;;;;;;;;;5051760;28;20050;-82
2023/06/10 11:28:49;;;;;;;4.43;2.42;;;;;;;;;;5051839;28;20126;-84
2023/06/10 11:31:22;;;;;;;21.10;3.40;;;;;;;;;;5068680;28;20045;-82
2023/06/10 11:33:52;;;;;;;5.43;2.30;;;;;;;;;;5050820;28;20130;-84
2023/06/10 11:36:18;;;;;;;9.13;2.78;;;;;;;;;;5051521;28;20047;-82
2023/06/10 11:38:44;;;;;;;4.45;2.38;;;;;;;;;;5018783;28;20078;-82
2023/06/10 11:41:12;;;;;;;5.18;2.45;;;;;;;;;;5034509;28;20072;-82
2023/06/10 11:43:41;;;;;;;5.18;2.13;;;;;;;;;;5052154;28;20179;-82
2023/06/10 11:46:08;;;;;;;3.85;2.40;;;;;;;;;;5060188;28;20521;-83
2023/06/10 11:48:34;;;;;;;5.03;2.40;;;;;;;;;;5050660;28;20053;-83
2023/06/10 11:51:00;;;;;;;5.03;2.20;;;;;;;;;;5050141;28;20505;-83
2023/06/10 11:53:26;;;;;;;3.47;2.08;;;;;;;;;;5051357;28;20048;-82
2023/06/10 11:55:54;;;;;;;11.05;2.88;;;;;;;;;;5034309;28;20512;-84
2023/06/10 11:58:21;;;;;;;2.88;1.95;;;;;;;;;;5067805;28;20045;-83
2023/06/10 12:00:51;;;;;;;4.15;2.20;;;;;;;;;;5034623;28;20147;-83
2023/06/10 12:03:18;;;;;;;6.82;2.50;;;;;;;;;;5083641;28;20083;-83
2023/06/10 12:05:57;;;;;;;3.45;2.00;;;;;;;;;;5084264;28;20041;-84
2023/06/10 12:08:23;;;;;;;3.00;2.05;;;;;;;;;;5083561;28;20091;-84
2023/06/10 12:10:50;;;;;;;2.92;1.90;;;;;;;;;;5043102;28;20064;-81
2023/06/10 12:13:17;;;;;;;5.10;2.38;;;;;;;;;;5053018;28;20053;-84
2023/06/10 12:15:44;;;;;;;3.67;2.20;;;;;;;;;;5070919;28;20131;-82
2023/06/10 12:18:17;;;;;;;3.35;2.20;;;;;;;;;;5069651;28;20155;-82
2023/06/10 12:20:43;;;;;;;4.18;2.50;;;;;;;;;;5053778;28;20078;-83
2023/06/10 12:23:10;;;;;;;3.38;2.13;;;;;;;;;;5037141;28;20056;-82
2023/06/10 12:25:39;;;;;;;5.05;2.38;;;;;;;;;;5053939;28;20052;-84
2023/06/10 12:28:08;;;;;;;2.85;2.13;;;;;;;;;;5064196;28;20048;-83
2023/06/10 12:30:34;;;;;;;5.88;2.20;;;;;;;;;;5057068;28;20075;-83
2023/06/10 12:33:00;;;;;;;3.60;2.08;;;;;;;;;;5052201;28;20047;-81
2023/06/10 12:35:28;;;;;;;4.78;2.20;;;;;;;;;;5070152;28;20052;-79
2023/06/10 12:38:01;;;;;;;10.27;3.25;;;;;;;;;;5065069;28;20048;-83
2023/06/10 12:40:35;;;;;;;3.45;2.42;;;;;;;;;;5070392;28;20040;-82
2023/06/10 12:43:02;;;;;;;3.45;2.10;;;;;;;;;;5072582;28;20101;-82
2023/06/10 12:45:30;;;;;;;4.47;2.20;;;;;;;;;;5056899;28;20499;-83
2023/06/10 12:48:09;;;;;;;3.47;2.28;;;;;;;;;;5069266;28;20089;-84
2023/06/10 12:50:39;;;;;;;3.53;2.20;;;;;;;;;;5055789;28;20067;-84
2023/06/10 12:53:05;;;;;;;4.75;2.00;;;;;;;;;;5050642;28;20040;-84
2023/06/10 12:55:32;;;;;;;4.85;2.30;;;;;;;;;;5056236;28;20473;-84
2023/06/10 12:57:58;;;;;;;4.13;2.20;;;;;;;;;;5072923;28;20461;-84
2023/06/10 13:00:29;;;;;;;9.20;2.58;;;;;;;;;;5056930;28;20107;-84
2023/06/10 13:02:56;;;;;;;3.60;2.22;;;;;;;;;;5056143;28;20044;-84
2023/06/10 13:05:22;;;;;;;10.75;2.85;;;;;;;;;;5072840;28;20048;-84
2023/06/10 13:07:48;;;;;;;5.50;2.22;;;;;;;;;;5056403;28;20151;-84
2023/06/10 13:10:16;;;;;;;4.78;2.30;;;;;;;;;;5072864;28;20135;-84
2023/06/10 13:12:42;;;;;;;4.50;2.15;;;;;;;;;;5056057;28;20063;-83
2023/06/10 13:15:08;;;;;;;4.53;2.70;;;;;;;;;;5056247;28;20044;-83
2023/06/10 13:17:35;;;;;;;5.88;2.30;;;;;;;;;;5052375;28;20052;-84
2023/06/10 13:20:04;;;;;;;3.92;2.30;;;;;;;;;;5052326;28;20048;-83
2023/06/10 13:22:32;;;;;;;2.60;2.13;;;;;;;;;;5067553;28;20044;-83
2023/06/10 13:24:59;;;;;;;4.55;2.88;;;;;;;;;;5073083;28;20051;-83
2023/06/10 13:27:25;;;;;;;6.57;2.78;;;;;;;;;;5072217;28;20039;-83
2023/06/10 13:29:51;;;;;;;5.53;2.97;;;;;;;;;;5055931;28;20048;-83
2023/06/10 13:32:17;;;;;;;7.32;2.88;;;;;;;;;;5072169;28;20047;-83
2023/06/10 13:34:43;;;;;;;4.20;2.53;;;;;;;;;;5055785;28;20059;-83
2023/06/10 13:37:09;;;;;;;6.03;2.40;;;;;;;;;;5072085;28;20052;-83
2023/06/10 13:39:35;;;;;;;4.00;2.55;;;;;;;;;;5054746;28;20094;-83
2023/06/10 13:42:01;;;;;;;3.67;2.47;;;;;;;;;;5072680;28;20056;-83
2023/06/10 13:44:30;;;;;;;5.45;2.53;;;;;;;;;;5054568;28;20091;-83
2023/06/10 13:46:56;;;;;;;5.53;2.42;;;;;;;;;;5056965;28;20390;-83
2023/06/10 13:49:23;;;;;;;4.30;2.38;;;;;;;;;;5058106;28;20127;-83
2023/06/10 13:51:49;;;;;;;4.75;3.00;;;;;;;;;;5059868;28;20044;-83
2023/06/10 13:54:15;;;;;;;6.15;2.92;;;;;;;;;;5076608;28;20051;-83
2023/06/10 13:56:41;;;;;;;3.72;2.40;;;;;;;;;;5076961;28;20374;-83
2023/06/10 13:59:08;;;;;;;4.78;2.60;;;;;;;;;;5076402;28;20091;-83
2023/06/10 14:01:34;;;;;;;3.30;2.33;;;;;;;;;;5073239;28;20033;-83
2023/06/10 14:04:00;;;;;;;7.10;3.33;;;;;;;;;;5072621;28;20041;-82
2023/06/10 14:06:27;;;;;;;5.65;3.33;;;;;;;;;;5056117;28;20106;-83
2023/06/10 14:08:54;;;;;;;4.72;2.55;;;;;;;;;;5040173;28;20098;-84
2023/06/10 14:11:20;;;;;;;5.07;2.85;;;;;;;;;;5074341;28;20099;-84
2023/06/10 14:13:47;;;;;;;3.97;2.50;;;;;;;;;;5065863;28;20056;-85
2023/06/10 14:16:13;;;;;;;4.88;2.97;;;;;;;;;;5059186;28;20054;-84
2023/06/10 14:18:39;;;;;;;5.65;3.00;;;;;;;;;;5058756;28;20043;-83
2023/06/10 14:21:05;;;;;;;8.30;3.45;;;;;;;;;;5075725;28;20055;-85
2023/06/10 14:23:31;;;;;;;5.63;2.83;;;;;;;;;;5057403;28;20040;-84
2023/06/10 14:25:58;;;;;;;5.70;2.92;;;;;;;;;;5059596;28;20040;-83
2023/06/10 14:28:25;;;;;;;4.05;2.60;;;;;;;;;;5056443;28;20518;-84
2023/06/10 14:30:52;;;;;;;5.28;2.65;;;;;;;;;;5045111;28;20045;-83
2023/06/10 14:33:18;;;;;;;4.80;2.80;;;;;;;;;;5057674;28;20563;-86
2023/06/10 14:35:45;;;;;;;6.68;3.35;;;;;;;;;;5074704;28;20051;-83
2023/06/10 14:38:11;;;;;;;4.13;2.80;;;;;;;;;;5055376;28;20048;-84
2023/06/10 14:40:37;;;;;;;3.80;2.55;;;;;;;;;;5061572;28;20481;-86
2023/06/10 14:43:09;;;;;;;4.22;2.40;;;;;;;;;;5075665;28;20401;-84
2023/06/10 14:45:35;;;;;;;4.25;2.42;;;;;;;;;;5053472;28;20040;-85
2023/06/10 14:48:01;;;;;;;6.15;2.67;;;;;;;;;;5062516;28;20522;-83
2023/06/10 14:50:27;;;;;;;4.05;2.60;;;;;;;;;;5060623;28;20534;-82
2023/06/10 14:52:54;;;;;;;6.63;2.85;;;;;;;;;;5043355;28;20043;-83
2023/06/10 14:55:20;;;;;;;6.68;2.70;;;;;;;;;;5056784;28;20116;-82